createdAt,value
2022-09-27T00:00:37.900Z,99796.50
2022-09-27T00:03:04.711Z,99796.50
2022-09-27T00:05:31.454Z,99798.59
2022-09-27T00:07:57.950Z,99807.00
2022-09-27T00:10:24.538Z,99812.81
2022-09-27T00:12:51.579Z,99813.59
2022-09-27T00:15:18.122Z,99811.75
2022-09-27T00:17:45.000Z,99822.03
2022-09-27T00:20:11.734Z,99814.91
2022-09-27T00:22:38.369Z,99816.50
2022-09-27T00:25:07.327Z,99812.28
2022-09-27T00:27:34.117Z,99814.13
2022-09-27T00:30:00.651Z,99814.66
2022-09-27T00:32:27.122Z,99813.59
2022-09-27T00:34:53.685Z,99807.00
2022-09-27T00:37:21.270Z,99809.09
2022-09-27T00:39:47.902Z,99800.91
2022-09-27T00:42:15.265Z,99802.25
2022-09-27T00:44:41.699Z,99806.19
2022-09-27T00:47:08.192Z,99802.25
2022-09-27T00:49:41.320Z,99805.91
2022-09-27T00:52:11.849Z,99809.06
2022-09-27T00:54:42.751Z,99805.34
2022-09-27T00:57:10.206Z,99801.41
2022-09-27T00:59:43.224Z,99797.44
2022-09-27T01:02:10.613Z,99816.38
2022-09-27T01:04:38.751Z,99817.94
2022-09-27T01:07:05.866Z,99819.47
2022-09-27T01:09:32.897Z,99821.84
2022-09-27T01:12:05.300Z,99820.78
2022-09-27T01:14:37.808Z,99822.09
2022-09-27T01:17:23.713Z,99819.97
2022-09-27T01:19:58.844Z,99824.94
2022-09-27T01:22:37.713Z,99829.91
2022-09-27T01:25:32.034Z,99836.22
2022-09-27T01:28:33.084Z,99840.16
2022-09-27T01:31:12.037Z,99839.06
2022-09-27T01:33:54.426Z,99845.63
2022-09-27T01:36:36.095Z,99844.03
2022-09-27T01:39:20.060Z,99845.06
2022-09-27T01:41:58.658Z,99840.88
2022-09-27T01:44:53.933Z,99843.75
2022-09-27T01:47:29.461Z,99843.50
2022-09-27T01:50:04.844Z,99841.16
2022-09-27T01:52:43.001Z,99847.78
2022-09-27T01:55:14.641Z,99845.94
2022-09-27T01:57:50.574Z,99839.88
2022-09-27T02:00:17.113Z,99845.66
2022-09-27T02:02:59.841Z,99840.66
2022-09-27T02:05:32.006Z,99834.59
2022-09-27T02:08:04.579Z,99826.97
2022-09-27T02:10:37.690Z,99828.25
2022-09-27T02:13:18.855Z,99828.25
2022-09-27T02:15:57.779Z,99826.69
2022-09-27T02:18:32.751Z,99826.94
2022-09-27T02:21:01.478Z,99831.66
2022-09-27T02:23:42.074Z,99825.59
2022-09-27T02:26:42.188Z,99829.25
2022-09-27T02:29:15.010Z,99823.72
2022-09-27T02:31:41.639Z,99833.19
2022-09-27T02:37:50.341Z,99824.72
2022-09-27T02:40:17.146Z,99812.34
2022-09-27T02:42:44.711Z,99818.91
2022-09-27T02:45:14.908Z,99820.75
2022-09-27T02:47:57.768Z,99814.41
2022-09-27T02:50:33.405Z,99817.53
2022-09-27T02:53:11.372Z,99815.66
2022-09-27T02:55:56.219Z,99824.81
2022-09-27T02:59:19.202Z,99818.00
2022-09-27T03:02:12.480Z,99823.22
2022-09-27T03:04:51.137Z,99825.56
2022-09-27T03:07:18.330Z,99825.56
2022-09-27T03:09:50.707Z,99825.56
2022-09-27T03:12:28.173Z,99825.81
2022-09-27T03:15:00.124Z,99822.66
2022-09-27T03:17:27.019Z,99817.94
2022-09-27T03:19:53.443Z,99815.31
2022-09-27T03:22:21.114Z,99821.34
2022-09-27T03:24:47.800Z,99820.84
2022-09-27T03:27:14.265Z,99824.81
2022-09-27T03:29:40.738Z,99815.63
2022-09-27T03:32:08.482Z,99820.63
2022-09-27T03:34:35.007Z,99817.75
2022-09-27T03:37:02.133Z,99820.38
2022-09-27T03:39:28.780Z,99827.47
2022-09-27T03:41:55.211Z,99825.06
2022-09-27T03:44:21.680Z,99819.56
2022-09-27T03:46:48.242Z,99824.03
2022-09-27T03:49:15.093Z,99830.06
2022-09-27T03:51:42.566Z,99829.53
2022-09-27T03:54:09.715Z,99830.34
2022-09-27T03:56:36.298Z,99830.88
2022-09-27T03:59:02.743Z,99829.53
2022-09-27T04:01:29.354Z,99838.94
2022-09-27T04:03:55.931Z,99834.19
2022-09-27T04:06:23.273Z,99832.31
2022-09-27T04:08:50.455Z,99836.22
2022-09-27T04:11:17.675Z,99832.28
2022-09-27T04:13:44.570Z,99833.81
2022-09-27T04:16:11.118Z,99838.00
2022-09-27T04:18:37.603Z,99845.41
2022-09-27T04:21:04.567Z,99842.53
2022-09-27T04:23:31.075Z,99837.28
2022-09-27T04:25:57.517Z,99830.44
2022-09-27T04:28:24.000Z,99829.88
2022-09-27T04:30:50.731Z,99840.66
2022-09-27T04:33:17.334Z,99842.19
2022-09-27T04:36:02.264Z,99836.63
2022-09-27T04:38:28.914Z,99841.59
2022-09-27T04:40:55.391Z,99845.00
2022-09-27T04:43:21.984Z,99842.91
2022-09-27T04:45:48.552Z,99842.91
2022-09-27T04:48:15.279Z,99844.47
2022-09-27T04:50:42.015Z,99843.69
2022-09-27T04:53:13.444Z,99847.13
2022-09-27T04:55:39.922Z,99848.16
2022-09-27T04:58:11.207Z,99851.31
2022-09-27T05:01:40.305Z,99852.38
2022-09-27T05:04:06.870Z,99849.22
2022-09-27T05:06:33.626Z,99849.50
2022-09-27T05:09:00.127Z,99848.22
2022-09-27T05:11:26.797Z,99844.06
2022-09-27T05:13:53.359Z,99854.06
2022-09-27T05:16:20.168Z,99845.94
2022-09-27T05:18:46.735Z,99844.66
2022-09-27T05:21:13.836Z,99858.31
2022-09-27T05:23:42.677Z,99870.66
2022-09-27T05:26:11.827Z,99863.56
2022-09-27T05:28:38.600Z,99865.47
2022-09-27T05:31:05.783Z,99862.84
2022-09-27T05:33:34.395Z,99854.16
2022-09-27T05:36:02.188Z,99854.66
2022-09-27T05:38:29.986Z,99859.38
2022-09-27T05:40:56.790Z,99854.13
2022-09-27T05:43:23.990Z,99853.88
2022-09-27T05:45:52.901Z,99864.41
2022-09-27T05:48:19.471Z,99869.47
2022-09-27T05:50:46.449Z,99864.53
2022-09-27T05:53:13.418Z,99871.69
2022-09-27T05:55:39.830Z,99873.63
2022-09-27T05:58:08.630Z,99872.63
2022-09-27T06:00:35.799Z,99867.16
2022-09-27T06:03:06.391Z,99870.09
2022-09-27T06:05:36.750Z,99880.41
2022-09-27T06:08:08.965Z,99873.88
2022-09-27T06:10:36.124Z,99869.69
2022-09-27T06:13:05.476Z,99868.72
2022-09-27T06:15:33.642Z,99865.09
2022-09-27T06:18:09.876Z,99864.31
2022-09-27T06:20:37.823Z,99872.47
2022-09-27T06:23:09.609Z,99877.97
2022-09-27T06:25:37.121Z,99885.31
2022-09-27T06:28:04.649Z,99887.66
2022-09-27T06:30:32.120Z,99885.53
2022-09-27T06:33:00.773Z,99891.06
2022-09-27T06:35:28.596Z,99886.34
2022-09-27T06:37:55.752Z,99884.25
2022-09-27T06:40:24.690Z,99877.69
2022-09-27T06:42:51.182Z,99891.66
2022-09-27T06:45:17.677Z,99890.13
2022-09-27T06:47:44.161Z,99885.69
2022-09-27T06:50:12.362Z,99889.41
2022-09-27T06:52:46.387Z,99891.84
2022-09-27T06:55:12.804Z,99903.19
2022-09-27T06:57:57.750Z,99917.16
2022-09-27T07:00:24.214Z,99918.44
2022-09-27T07:02:51.091Z,99918.69
2022-09-27T07:05:18.280Z,99912.09
2022-09-27T07:07:44.916Z,99912.88
2022-09-27T07:10:11.938Z,99909.44
2022-09-27T07:12:38.754Z,99906.81
2022-09-27T07:15:06.295Z,99912.34
2022-09-27T07:17:32.917Z,99917.88
2022-09-27T07:19:59.376Z,99905.28
2022-09-27T07:22:25.819Z,99904.53
2022-09-27T07:24:52.292Z,99908.78
2022-09-27T07:27:18.781Z,99915.09
2022-09-27T07:29:45.242Z,99915.63
2022-09-27T07:32:11.747Z,99928.81
2022-09-27T07:34:38.217Z,99926.47
2022-09-27T07:37:05.586Z,99934.63
2022-09-27T07:39:32.310Z,99930.16
2022-09-27T07:41:58.793Z,99926.25
2022-09-27T07:44:25.321Z,99934.91
2022-09-27T07:46:51.778Z,99931.47
2022-09-27T07:49:18.199Z,99929.88
2022-09-27T07:51:44.975Z,99933.03
2022-09-27T07:54:11.458Z,99937.28
2022-09-27T07:56:37.922Z,99938.88
2022-09-27T07:59:04.364Z,99940.97
2022-09-27T08:01:30.971Z,99942.28
2022-09-27T08:03:58.598Z,99937.81
2022-09-27T08:06:25.249Z,99936.75
2022-09-27T08:08:51.876Z,99939.13
2022-09-27T08:11:19.312Z,99940.75
2022-09-27T08:13:46.381Z,99939.97
2022-09-27T08:16:14.325Z,99945.50
2022-09-27T08:18:41.062Z,99944.16
2022-09-27T08:21:07.552Z,99948.63
2022-09-27T08:23:34.165Z,99952.59
2022-09-27T08:26:00.724Z,99953.59
2022-09-27T08:28:27.654Z,99951.75
2022-09-27T08:30:54.189Z,99944.56
2022-09-27T08:33:23.058Z,99948.22
2022-09-27T08:35:49.601Z,99955.84
2022-09-27T08:38:16.120Z,99952.69
2022-09-27T08:41:05.824Z,99952.44
2022-09-27T08:43:52.781Z,99963.81
2022-09-27T08:46:34.415Z,99978.94
2022-09-27T08:49:21.498Z,99983.97
2022-09-27T08:51:52.523Z,99985.28
2022-09-27T08:54:24.509Z,99987.41
2022-09-27T08:57:20.263Z,99991.31
2022-09-27T09:00:08.000Z,99979.19
2022-09-27T09:02:36.443Z,99983.72
2022-09-27T09:05:17.739Z,99972.38
2022-09-27T09:08:16.427Z,99966.31
2022-09-27T09:11:12.244Z,99967.91
2022-09-27T09:13:44.849Z,99977.66
2022-09-27T09:16:43.472Z,99978.44
2022-09-27T09:19:44.191Z,99982.66
2022-09-27T09:22:32.600Z,99980.56
2022-09-27T09:25:36.831Z,99973.16
2022-09-27T09:28:43.997Z,99990.56
2022-09-27T09:31:37.859Z,99989.78
2022-09-27T09:34:17.430Z,99987.41
2022-09-27T09:36:56.668Z,99989.25
2022-09-27T09:40:15.739Z,99990.84
2022-09-27T09:43:39.753Z,99988.75
2022-09-27T09:46:22.403Z,99990.06
2022-09-27T09:49:07.377Z,99994.25
2022-09-27T09:51:56.878Z,99994.78
2022-09-27T09:54:38.916Z,99991.06
2022-09-27T09:57:16.586Z,99999.50
2022-09-27T09:59:49.202Z,99999.78
2022-09-27T10:02:37.282Z,100001.63
2022-09-27T10:05:08.081Z,100005.28
2022-09-27T10:07:38.719Z,99999.97
2022-09-27T10:10:09.561Z,100003.94
2022-09-27T10:12:36.791Z,100007.88
2022-09-27T10:15:05.690Z,100001.53
2022-09-27T10:17:44.791Z,99991.69
2022-09-27T10:20:26.944Z,99993.00
2022-09-27T10:22:59.211Z,99989.09
2022-09-27T10:25:50.600Z,99992.03
2022-09-27T10:29:18.142Z,99988.34
2022-09-27T10:31:47.917Z,99998.63
2022-09-27T10:38:24.574Z,99985.69
2022-09-27T10:44:42.000Z,99985.03
2022-09-27T10:47:10.239Z,99986.59
2022-09-27T10:49:43.185Z,99980.44
2022-09-27T10:52:18.754Z,99989.59
2022-09-27T10:55:00.907Z,99983.13
2022-09-27T10:57:30.147Z,99980.41
2022-09-27T11:00:07.421Z,99993.00
2022-09-27T11:02:37.955Z,99988.41
2022-09-27T11:05:13.898Z,99996.94
2022-09-27T11:07:56.333Z,100002.31
2022-09-27T11:10:37.348Z,99994.72
2022-09-27T11:13:12.497Z,99995.31
2022-09-27T11:15:47.746Z,99998.59
2022-09-27T11:18:37.645Z,100002.84
2022-09-27T11:21:16.215Z,99993.91
2022-09-27T11:23:54.854Z,100003.44
2022-09-27T11:26:50.611Z,100004.28
2022-09-27T11:33:22.978Z,99999.81
2022-09-27T11:36:13.757Z,100004.84
2022-09-27T11:39:08.033Z,100004.84
2022-09-27T11:41:54.278Z,100001.44
2022-09-27T11:44:36.197Z,100013.03
2022-09-27T11:47:15.698Z,100000.59
2022-09-27T11:49:57.340Z,99997.66
2022-09-27T11:53:00.027Z,100002.63
2022-09-27T11:56:03.311Z,100002.31
2022-09-27T11:58:58.752Z,99994.94
2022-09-27T12:01:43.607Z,99991.72
2022-09-27T12:04:40.159Z,99983.91
2022-09-27T12:07:37.075Z,99988.88
2022-09-27T12:10:14.369Z,99988.72
2022-09-27T12:12:47.578Z,99997.56
2022-09-27T12:15:19.910Z,99992.66
2022-09-27T12:17:50.113Z,99987.41
2022-09-27T12:20:28.135Z,99999.56
2022-09-27T12:23:03.076Z,100001.72
2022-09-27T12:25:34.985Z,100011.84
2022-09-27T12:28:12.240Z,100003.16
2022-09-27T12:30:43.918Z,100007.94
2022-09-27T12:33:26.399Z,100010.59
2022-09-27T12:35:56.974Z,100014.31
2022-09-27T12:38:27.183Z,100007.44
2022-09-27T12:40:59.528Z,100013.81
2022-09-27T12:43:29.276Z,100011.94
2022-09-27T12:46:22.764Z,100011.94
2022-09-27T12:49:17.732Z,100016.41
2022-09-27T12:51:50.836Z,100007.72
2022-09-27T12:54:29.766Z,99993.72
2022-09-27T12:57:18.241Z,99992.94
2022-09-27T12:59:51.024Z,99992.97
2022-09-27T13:02:35.710Z,99991.91
2022-09-27T13:05:27.215Z,99992.69
2022-09-27T13:07:56.589Z,99995.84
2022-09-27T13:10:47.600Z,99997.97
2022-09-27T13:13:18.739Z,99989.78
2022-09-27T13:15:46.790Z,99984.00
2022-09-27T13:18:31.925Z,99981.03
2022-09-27T13:20:58.617Z,99980.50
2022-09-27T13:23:29.551Z,99985.53
2022-09-27T13:26:02.945Z,99985.78
2022-09-27T13:28:31.679Z,99979.13
2022-09-27T13:31:11.881Z,99971.19
2022-09-27T13:33:54.731Z,99968.97
2022-09-27T13:36:24.601Z,99967.31
2022-09-27T13:39:01.331Z,99960.56
2022-09-27T13:41:48.840Z,99969.22
2022-09-27T13:44:47.239Z,99971.50
2022-09-27T13:47:13.756Z,99961.88
2022-09-27T13:49:44.600Z,99961.03
2022-09-27T13:52:30.127Z,99954.00
2022-09-27T13:54:58.897Z,99954.59
2022-09-27T13:57:41.934Z,99945.16
2022-09-27T14:00:44.256Z,99944.16
2022-09-27T14:03:18.395Z,99938.41
2022-09-27T14:05:59.372Z,99935.91
2022-09-27T14:08:33.922Z,99935.41
2022-09-27T14:11:04.500Z,99933.34
2022-09-27T14:13:32.877Z,99938.56
2022-09-27T14:16:04.405Z,99942.22
2022-09-27T14:18:32.733Z,99932.59
2022-09-27T14:21:39.163Z,99927.34
2022-09-27T14:24:35.233Z,99937.09
2022-09-27T14:27:13.993Z,99931.25
2022-09-27T14:29:46.998Z,99926.22
2022-09-27T14:32:20.269Z,99929.34
2022-09-27T14:34:47.172Z,99931.22
2022-09-27T14:37:24.143Z,99933.13
2022-09-27T14:40:08.155Z,99935.69
2022-09-27T14:42:37.226Z,99933.16
2022-09-27T14:45:21.745Z,99920.25
2022-09-27T14:47:50.482Z,99921.06
2022-09-27T14:50:24.640Z,99910.22
2022-09-27T14:52:55.483Z,99911.78
2022-09-27T14:55:25.254Z,99907.22
2022-09-27T14:57:58.966Z,99907.69
2022-09-27T15:00:36.809Z,99905.03
2022-09-27T15:03:12.223Z,99913.47
2022-09-27T15:05:44.430Z,99911.06
2022-09-27T15:08:30.500Z,99909.72
2022-09-27T15:14:59.460Z,99913.50
2022-09-27T15:21:37.535Z,99907.47
2022-09-27T15:24:39.945Z,99900.91
2022-09-27T15:27:22.440Z,99903.56
2022-09-27T15:34:06.101Z,99894.34
2022-09-27T15:36:47.434Z,99889.13
2022-09-27T15:43:40.063Z,99881.00
2022-09-27T15:46:46.665Z,99872.91
2022-09-27T15:49:22.786Z,99874.00
2022-09-27T15:51:54.465Z,99865.56
2022-09-27T15:54:22.591Z,99872.97
2022-09-27T15:56:55.258Z,99878.00
2022-09-27T15:59:28.037Z,99876.94
2022-09-27T16:02:02.054Z,99873.81
2022-09-27T16:09:02.693Z,99861.97
2022-09-27T16:11:29.153Z,99864.88
2022-09-27T16:13:56.265Z,99853.81
2022-09-27T16:16:40.991Z,99859.63
2022-09-27T16:19:07.516Z,99854.88
2022-09-27T16:21:33.949Z,99854.38
2022-09-27T16:24:40.634Z,99861.25
2022-09-27T16:31:35.930Z,99858.91
2022-09-27T16:35:04.433Z,99863.69
2022-09-27T16:37:30.894Z,99876.88
2022-09-27T16:39:57.365Z,99858.16
2022-09-27T16:42:23.821Z,99852.38
2022-09-27T16:44:50.656Z,99857.38
2022-09-27T16:47:18.275Z,99865.06
2022-09-27T16:50:03.312Z,99851.09
2022-09-27T16:52:34.017Z,99859.53
2022-09-27T16:55:00.753Z,99855.59
2022-09-27T16:57:33.541Z,99856.13
2022-09-27T17:00:00.800Z,99864.03
2022-09-27T17:02:27.618Z,99864.81
2022-09-27T17:04:55.367Z,99868.75
2022-09-27T17:07:21.905Z,99868.22
2022-09-27T17:09:48.380Z,99858.19
2022-09-27T17:12:16.346Z,99855.56
2022-09-27T17:14:42.946Z,99853.47
2022-09-27T17:17:09.453Z,99851.38
2022-09-27T17:19:38.019Z,99852.69
2022-09-27T17:22:07.523Z,99855.59
2022-09-27T17:25:18.869Z,99845.56
2022-09-27T17:27:45.397Z,99840.28
2022-09-27T17:30:12.147Z,99836.06
2022-09-27T17:32:38.970Z,99835.53
2022-09-27T17:35:06.669Z,99837.91
2022-09-27T17:37:33.160Z,99841.34
2022-09-27T17:39:59.654Z,99840.03
2022-09-27T17:42:26.178Z,99841.59
2022-09-27T17:44:52.820Z,99842.13
2022-09-27T17:50:52.243Z,99841.81
2022-09-27T17:53:18.689Z,99849.97
2022-09-27T17:55:45.428Z,99846.03
2022-09-27T17:58:11.888Z,99841.03
2022-09-27T18:00:38.352Z,99842.88
2022-09-27T18:03:04.821Z,99828.66
2022-09-27T18:05:31.331Z,99823.91
2022-09-27T18:07:59.184Z,99809.69
2022-09-27T18:10:27.382Z,99821.00
2022-09-27T18:12:53.925Z,99818.09
2022-09-27T18:15:21.901Z,99810.97
2022-09-27T18:17:57.811Z,99813.31
2022-09-27T18:20:24.831Z,99813.31
2022-09-27T18:22:51.902Z,99802.00
2022-09-27T18:25:18.405Z,99803.31
2022-09-27T18:27:50.668Z,99809.34
2022-09-27T18:30:17.299Z,99814.31
2022-09-27T18:32:43.818Z,99802.47
2022-09-27T18:35:10.457Z,99804.03
2022-09-27T18:37:36.959Z,99809.00
2022-09-27T18:40:03.855Z,99812.94
2022-09-27T18:42:31.303Z,99808.44
2022-09-27T18:44:57.923Z,99808.44
2022-09-27T18:47:24.533Z,99808.97
2022-09-27T18:49:51.310Z,99807.38
2022-09-27T18:52:17.945Z,99796.34
2022-09-27T18:54:44.485Z,99812.13
2022-09-27T18:57:11.167Z,99814.22
2022-09-27T18:59:37.923Z,99810.53
2022-09-27T19:02:04.466Z,99813.97
2022-09-27T19:04:30.973Z,99816.09
2022-09-27T19:06:57.580Z,99816.88
2022-09-27T19:09:26.718Z,99809.00
2022-09-27T19:11:53.475Z,99810.81
2022-09-27T19:14:22.558Z,99812.66
2022-09-27T19:16:49.550Z,99806.63
2022-09-27T19:19:17.385Z,99811.09
2022-09-27T19:21:44.508Z,99807.41
2022-09-27T19:24:11.890Z,99810.81
2022-09-27T19:26:38.679Z,99806.34
2022-09-27T19:29:06.484Z,99804.78
2022-09-27T19:31:33.788Z,99793.47
2022-09-27T19:34:00.844Z,99810.03
2022-09-27T19:36:28.054Z,99795.31
2022-09-27T19:38:56.427Z,99795.31
2022-09-27T19:41:22.903Z,99797.16
2022-09-27T19:43:53.178Z,99797.94
2022-09-27T19:46:21.285Z,99795.03
2022-09-27T19:48:49.492Z,99796.88
2022-09-27T19:51:18.531Z,99791.88
2022-09-27T19:53:45.628Z,99796.09
2022-09-27T19:56:13.167Z,99794.25
2022-09-27T19:58:41.332Z,99792.66
2022-09-27T20:01:07.768Z,99794.50
2022-09-27T20:03:42.890Z,99794.50
2022-09-27T20:06:11.858Z,99795.84
2022-09-27T20:08:38.932Z,99796.63
2022-09-27T20:11:08.759Z,99790.59
2022-09-27T20:13:37.077Z,99794.00
2022-09-27T20:16:21.000Z,99793.50
2022-09-27T20:18:52.914Z,99792.94
2022-09-27T20:21:20.816Z,99789.25
2022-09-27T20:23:52.336Z,99788.72
2022-09-27T20:26:20.501Z,99784.25
2022-09-27T20:28:49.599Z,99774.50
2022-09-27T20:31:21.551Z,99786.84
2022-09-27T20:33:51.935Z,99782.09
2022-09-27T20:36:21.545Z,99778.63
2022-09-27T20:38:52.540Z,99775.72
2022-09-27T20:41:21.676Z,99771.47
2022-09-27T20:43:53.998Z,99772.53
2022-09-27T20:46:21.475Z,99779.09
2022-09-27T20:48:56.544Z,99771.41
2022-09-27T20:51:26.707Z,99780.38
2022-09-27T20:53:53.848Z,99771.16
2022-09-27T20:56:27.998Z,99770.88
2022-09-27T20:58:56.411Z,99764.03
2022-09-27T21:01:24.777Z,99768.22
2022-09-27T21:04:02.338Z,99766.63
2022-09-27T21:06:31.274Z,99771.34
2022-09-27T21:08:59.649Z,99765.03
2022-09-27T21:11:26.877Z,99763.44
2022-09-27T21:13:53.903Z,99761.34
2022-09-27T21:16:24.317Z,99760.31
2022-09-27T21:18:52.287Z,99755.06
2022-09-27T21:21:19.858Z,99762.94
2022-09-27T21:23:47.087Z,99760.84
2022-09-27T21:26:19.130Z,99761.38
2022-09-27T21:28:50.922Z,99754.28
2022-09-27T21:31:22.720Z,99752.97
2022-09-27T21:33:54.589Z,99759.25
2022-09-27T21:36:26.198Z,99757.44
2022-09-27T21:38:52.838Z,99756.38
2022-09-27T21:41:19.350Z,99758.22
2022-09-27T21:43:47.797Z,99754.53
2022-09-27T21:46:18.160Z,99764.25
2022-09-27T21:48:47.014Z,99756.88
2022-09-27T21:51:16.656Z,99766.84
2022-09-27T21:56:53.068Z,99758.94
2022-09-27T21:59:19.555Z,99757.91
2022-09-27T22:01:46.411Z,99757.09
2022-09-27T22:04:13.195Z,99760.53
2022-09-27T22:06:40.035Z,99755.28
2022-09-27T22:09:24.738Z,99748.44
2022-09-27T22:11:51.330Z,99754.19
2022-09-27T22:14:19.784Z,99743.66
2022-09-27T22:16:47.650Z,99752.56
2022-09-27T22:19:15.335Z,99746.22
2022-09-27T22:21:42.726Z,99744.38
2022-09-27T22:24:17.520Z,99754.81
2022-09-27T22:26:49.681Z,99749.03
2022-09-27T22:29:16.795Z,99746.91
2022-09-27T22:31:43.476Z,99747.94
2022-09-27T22:34:17.138Z,99747.94
2022-09-27T22:36:44.191Z,99749.53
2022-09-27T22:39:10.723Z,99744.78
2022-09-27T22:41:37.562Z,99739.19
2022-09-27T22:44:04.134Z,99740.47
2022-09-27T22:46:31.221Z,99743.06
2022-09-27T22:48:57.774Z,99740.63
2022-09-27T23:03:57.060Z,99726.25
